Murska Sobota, Slovenia
Current Conditions -  °F | °C
As of 9:30 PM on Monday 22 Dec 2014 (Local Time) from LJMB Reporting Station
Clear Clear  
Wind Chill: 43°   Ceiling: Unl
Heat Index: 46°   Visibility: 6mi
Dew Point: 28°   Wind: 7mph
Humidity: 50%   Direction: 230°SW
Pressure: 30.15"   Gusts: NA
Location:  46.66°N, 16.14°E
Report Text: LJMB 222030Z 23006KT 170V290 CAVOK 08/M02 Q1021
Loading
Personal Weather Stations






























Interactive Weather Map New forecast layout! Learn more

10-Day Weather Forecast

Advertisements
Track Severe Weather on mobile